»·PEaware :: N772SD CYZT-CYZP

N772SD :: CYZT-CYZP

FLIGHT INFORMATION

Flight Status: Arrived
Operator: Privately registered:
United States
More flights under this callsign
Pilot: Sven R. (15096)
Aircraft: CESSNA 206 STATIONAIR
(C206)
More flights by this aircraft type
Origin: CYZT Port Hardy
Canada
Destination: CYZP Sandspit
Canada
More flights between these airports :: More routes between these airports
Route: DCT
File this flight plan on PilotEdge
Remarks:
Altitude:
(Current/Filed)
2,000ft
Speed:
(Current/Filed)
140kts
Departed: 25-May-17 01:54 PM
Arrived: 25-May-17 03:54 PM
Distance/Time
Traveled:
226nm/2:00
Distance/Time
To Go:
Arrived

Flight Plot

Page will automatically refresh every two minutes.

Flight plan parsing failed; only flown route is shown


Map Options




Map Legend


Flown Route
Filed Route
Departure Airport
Arrival Airport
Navaid (VOR, NDB)
Fix

Horizontal Profiles

Position Reports

Time Latitude Longitude Heading Altitude Ground
Speed
25-May-17 13:55 50.679154 -127.371496 357 70ft 0kts
25-May-17 13:56 50.689280 -127.380913 302 566ft 81kts
25-May-17 13:57 50.704308 -127.407662 332 1316ft 82kts
25-May-17 13:58 50.724204 -127.425688 333 2092ft 83kts
25-May-17 13:59 50.744218 -127.443909 333 2868ft 83kts
25-May-17 14:00 50.764866 -127.462904 333 3402ft 99kts
25-May-17 14:01 50.791700 -127.486993 326 3013ft 116kts
25-May-17 14:02 50.802862 -127.534620 299 2440ft 113kts
25-May-17 14:03 50.818793 -127.574561 312 2056ft 98kts
25-May-17 14:04 50.835962 -127.606471 317 2036ft 93kts
25-May-17 14:05 50.853715 -127.636454 318 2049ft 98kts
25-May-17 14:06 50.873639 -127.668991 317 2087ft 105kts
25-May-17 14:07 50.892805 -127.699930 318 2090ft 105kts
25-May-17 14:08 50.913383 -127.733049 318 2090ft 105kts
25-May-17 14:09 50.933993 -127.766215 318 2090ft 105kts
25-May-17 14:10 50.954608 -127.799418 318 2089ft 105kts
25-May-17 14:11 50.975278 -127.832750 318 2089ft 105kts
25-May-17 14:12 50.995554 -127.865479 317 2090ft 104kts
25-May-17 14:13 51.015801 -127.898224 317 2089ft 103kts
25-May-17 14:14 51.035972 -127.930884 317 2089ft 103kts
25-May-17 14:15 51.056264 -127.963775 317 2058ft 109kts
25-May-17 14:16 51.076940 -127.997264 317 1996ft 126kts
25-May-17 14:17 51.101567 -128.037286 317 1994ft 133kts
25-May-17 14:18 51.127461 -128.079453 317 1996ft 133kts
25-May-17 14:19 51.154781 -128.117715 338 1996ft 132kts
25-May-17 14:20 51.189596 -128.134465 348 1996ft 131kts
25-May-17 14:21 51.225523 -128.146003 348 1996ft 131kts
25-May-17 14:22 51.261400 -128.157518 348 1996ft 131kts
25-May-17 14:23 51.297241 -128.169021 348 1995ft 131kts
25-May-17 14:24 51.333122 -128.180535 348 1995ft 131kts
25-May-17 14:25 51.368846 -128.191997 348 1995ft 131kts
25-May-17 14:26 51.404775 -128.203523 348 1995ft 131kts
25-May-17 14:27 51.440450 -128.214958 348 1995ft 131kts
25-May-17 14:28 51.476658 -128.212346 7 1995ft 132kts
25-May-17 14:29 51.509441 -128.205865 4 1995ft 132kts
25-May-17 14:30 51.546051 -128.200367 3 1995ft 132kts
25-May-17 14:31 51.582529 -128.195354 3 1995ft 132kts
25-May-17 14:32 51.619003 -128.190445 3 1994ft 132kts
25-May-17 14:33 51.655563 -128.185542 3 1994ft 132kts
25-May-17 14:34 51.692083 -128.180643 3 1994ft 132kts
25-May-17 14:35 51.728536 -128.175747 3 1994ft 132kts
25-May-17 14:36 51.764964 -128.170847 3 1994ft 131kts
25-May-17 14:37 51.801391 -128.166092 358 1993ft 131kts
25-May-17 14:38 51.837076 -128.176754 348 1994ft 131kts
25-May-17 14:39 51.872836 -128.188222 348 1994ft 131kts
25-May-17 14:40 51.908630 -128.199700 348 1994ft 131kts
25-May-17 14:41 51.944367 -128.211157 348 1993ft 131kts
25-May-17 14:42 51.980117 -128.222612 348 1993ft 131kts
25-May-17 14:43 52.014507 -128.241525 330 1990ft 132kts
25-May-17 14:44 52.044569 -128.275947 325 1985ft 132kts
25-May-17 14:45 52.074674 -128.310439 326 1982ft 132kts
25-May-17 14:46 52.104085 -128.344022 326 1985ft 132kts
25-May-17 14:47 52.134218 -128.378801 326 1990ft 132kts
25-May-17 14:48 52.164065 -128.414026 326 1995ft 133kts
25-May-17 14:49 52.194184 -128.448983 325 1983ft 133kts
25-May-17 14:50 52.223992 -128.483990 323 1971ft 134kts
25-May-17 14:51 52.253563 -128.521245 322 1959ft 135kts
25-May-17 14:52 52.283865 -128.558196 322 1947ft 137kts
25-May-17 14:53 52.314748 -128.595237 323 1935ft 139kts
25-May-17 14:54 52.338680 -128.643235 300 1937ft 138kts
25-May-17 14:55 52.356526 -128.697606 296 1955ft 139kts
25-May-17 14:56 52.373461 -128.754239 295 1971ft 141kts
25-May-17 14:57 52.390506 -128.812650 295 1983ft 143kts
25-May-17 14:58 52.407519 -128.871416 295 1993ft 144kts
25-May-17 14:59 52.424577 -128.930585 295 1995ft 144kts
25-May-17 15:00 52.441618 -128.989837 295 1995ft 144kts
25-May-17 15:01 52.458640 -129.049173 295 1995ft 144kts
25-May-17 15:02 52.475656 -129.108634 295 1995ft 144kts
25-May-17 15:03 52.492621 -129.168069 295 2008ft 143kts
25-May-17 15:04 52.509503 -129.227365 295 2029ft 143kts
25-May-17 15:05 52.526275 -129.286425 295 2049ft 143kts
25-May-17 15:06 52.542986 -129.345416 295 2069ft 143kts
25-May-17 15:07 52.558628 -129.400764 295 2077ft 143kts
25-May-17 15:08 52.572732 -129.450784 295 2077ft 143kts
25-May-17 15:09 52.589449 -129.510206 295 2077ft 143kts
25-May-17 15:10 52.606111 -129.569588 295 2077ft 143kts
25-May-17 15:11 52.622799 -129.629213 295 2077ft 143kts
25-May-17 15:12 52.638887 -129.686868 292 2080ft 140kts
25-May-17 15:13 52.654435 -129.742681 294 2077ft 133kts
25-May-17 15:14 52.669692 -129.797577 293 2078ft 132kts
25-May-17 15:15 52.684863 -129.852276 294 2077ft 132kts
25-May-17 15:16 52.689278 -129.910595 267 2077ft 133kts
25-May-17 15:17 52.694130 -129.970218 285 2077ft 132kts
25-May-17 15:18 52.706233 -130.027185 290 2077ft 132kts
25-May-17 15:19 52.720116 -130.083228 293 2077ft 133kts
25-May-17 15:20 52.733484 -130.135310 292 2080ft 132kts
25-May-17 15:21 52.745119 -130.180393 291 2082ft 132kts
25-May-17 15:22 52.759528 -130.235891 293 2083ft 132kts
25-May-17 15:23 52.773831 -130.291432 294 2082ft 132kts
25-May-17 15:24 52.788197 -130.347433 294 2082ft 132kts
25-May-17 15:25 52.802464 -130.403112 293 2087ft 132kts
25-May-17 15:26 52.815492 -130.454020 296 2095ft 132kts
25-May-17 15:27 52.829763 -130.509872 296 2104ft 133kts
25-May-17 15:28 52.844254 -130.566738 297 2112ft 135kts
25-May-17 15:29 52.858879 -130.624184 297 2112ft 135kts
25-May-17 15:30 52.873363 -130.681309 296 2113ft 136kts
25-May-17 15:31 52.887965 -130.739055 296 2113ft 136kts
25-May-17 15:32 52.902508 -130.796729 296 2113ft 136kts
25-May-17 15:33 52.917045 -130.854529 296 2112ft 136kts
25-May-17 15:34 52.931562 -130.912402 296 2112ft 136kts
25-May-17 15:35 52.946037 -130.970258 296 2112ft 136kts
25-May-17 15:36 52.960484 -131.028155 296 2112ft 136kts
25-May-17 15:37 52.974927 -131.086185 296 2112ft 136kts
25-May-17 15:38 52.989315 -131.144147 296 2112ft 136kts
25-May-17 15:39 53.003669 -131.202123 296 2112ft 136kts
25-May-17 15:40 53.017969 -131.260032 296 2112ft 136kts
25-May-17 15:41 53.032279 -131.318139 296 2112ft 136kts
25-May-17 15:42 53.046501 -131.376037 296 2112ft 136kts
25-May-17 15:43 53.060735 -131.434142 296 2112ft 136kts
25-May-17 15:44 53.074929 -131.492234 296 2112ft 136kts
25-May-17 15:45 53.089105 -131.550406 296 2112ft 136kts
25-May-17 15:46 53.103051 -131.607784 296 2115ft 136kts
25-May-17 15:47 53.122210 -131.659801 318 2115ft 132kts
25-May-17 15:48 53.148206 -131.701089 323 2036ft 98kts
25-May-17 15:49 53.166148 -131.720563 333 1314ft 57kts
25-May-17 15:50 53.180385 -131.732542 340 1035ft 59kts
25-May-17 15:51 53.194087 -131.743732 332 820ft 52kts
25-May-17 15:52 53.206408 -131.756004 330 701ft 53kts
25-May-17 15:53 53.218333 -131.770165 329 694ft 53kts
25-May-17 15:54 53.229042 -131.784446 329 325ft 48kts
25-May-17 15:55 53.239720 -131.796575 329 220ft 47kts
25-May-17 15:56 53.249521 -131.808098 331 41ft 40kts
25-May-17 15:57 53.254068 -131.813439 310 27ft 18kts
25-May-17 15:58 53.254082 -131.815859 331 28ft 6kts

Navigation Log

Ident Type
Flight plan parsing failed, navigation log unavailable